sensor_id;sensor_type;location;lat;lon;timestamp;P1;durP1;ratioP1;P2;durP2;ratioP2
10041;SDS011;5061;49.068;12.058;2024-03-08T00:02:57;20.00;;;9.27;;
10041;SDS011;5061;49.068;12.058;2024-03-08T00:06:18;14.90;;;7.80;;
10041;SDS011;5061;49.068;12.058;2024-03-08T00:09:39;12.60;;;7.40;;
10041;SDS011;5061;49.068;12.058;2024-03-08T00:13:00;13.67;;;7.57;;
10041;SDS011;5061;49.068;12.058;2024-03-08T00:16:21;13.57;;;7.90;;
10041;SDS011;5061;49.068;12.058;2024-03-08T00:19:43;14.13;;;8.00;;
10041;SDS011;5061;49.068;12.058;2024-03-08T00:23:03;13.43;;;7.53;;
10041;SDS011;5061;49.068;12.058;2024-03-08T00:26:24;11.63;;;6.90;;
10041;SDS011;5061;49.068;12.058;2024-03-08T00:29:44;16.27;;;8.43;;
10041;SDS011;5061;49.068;12.058;2024-03-08T00:33:06;14.13;;;8.37;;
10041;SDS011;5061;49.068;12.058;2024-03-08T00:36:27;15.03;;;7.93;;
10041;SDS011;5061;49.068;12.058;2024-03-08T00:39:50;13.57;;;7.90;;
10041;SDS011;5061;49.068;12.058;2024-03-08T00:43:11;13.70;;;7.50;;
10041;SDS011;5061;49.068;12.058;2024-03-08T00:46:32;17.97;;;9.97;;
10041;SDS011;5061;49.068;12.058;2024-03-08T00:49:54;16.00;;;8.10;;
10041;SDS011;5061;49.068;12.058;2024-03-08T00:53:16;23.30;;;10.60;;
10041;SDS011;5061;49.068;12.058;2024-03-08T00:56:37;18.60;;;9.33;;
10041;SDS011;5061;49.068;12.058;2024-03-08T00:59:59;16.00;;;8.83;;
10041;SDS011;5061;49.068;12.058;2024-03-08T01:03:19;16.73;;;8.90;;
10041;SDS011;5061;49.068;12.058;2024-03-08T01:06:40;15.30;;;8.90;;
10041;SDS011;5061;49.068;12.058;2024-03-08T01:10:03;13.40;;;8.40;;
10041;SDS011;5061;49.068;12.058;2024-03-08T01:13:23;13.60;;;7.70;;
10041;SDS011;5061;49.068;12.058;2024-03-08T01:16:44;14.03;;;8.00;;
10041;SDS011;5061;49.068;12.058;2024-03-08T01:20:05;18.00;;;8.47;;
10041;SDS011;5061;49.068;12.058;2024-03-08T01:23:26;14.93;;;8.50;;
10041;SDS011;5061;49.068;12.058;2024-03-08T01:26:46;17.57;;;8.70;;
10041;SDS011;5061;49.068;12.058;2024-03-08T01:30:07;16.00;;;9.60;;
10041;SDS011;5061;49.068;12.058;2024-03-08T01:33:29;15.73;;;8.50;;
10041;SDS011;5061;49.068;12.058;2024-03-08T01:36:51;15.93;;;8.73;;
10041;SDS011;5061;49.068;12.058;2024-03-08T01:40:11;13.40;;;8.10;;
10041;SDS011;5061;49.068;12.058;2024-03-08T01:43:32;15.60;;;8.40;;
10041;SDS011;5061;49.068;12.058;2024-03-08T01:46:53;14.90;;;8.63;;
10041;SDS011;5061;49.068;12.058;2024-03-08T01:50:14;14.90;;;9.00;;
10041;SDS011;5061;49.068;12.058;2024-03-08T01:53:35;14.23;;;8.20;;
10041;SDS011;5061;49.068;12.058;2024-03-08T01:56:57;17.50;;;8.90;;
10041;SDS011;5061;49.068;12.058;2024-03-08T02:00:19;15.33;;;9.27;;
10041;SDS011;5061;49.068;12.058;2024-03-08T02:03:40;15.33;;;8.00;;
10041;SDS011;5061;49.068;12.058;2024-03-08T02:07:03;12.43;;;7.73;;
10041;SDS011;5061;49.068;12.058;2024-03-08T02:10:25;16.23;;;8.63;;
10041;SDS011;5061;49.068;12.058;2024-03-08T02:13:46;15.20;;;8.73;;
10041;SDS011;5061;49.068;12.058;2024-03-08T02:17:07;19.10;;;9.33;;
10041;SDS011;5061;49.068;12.058;2024-03-08T02:20:28;12.60;;;7.60;;
10041;SDS011;5061;49.068;12.058;2024-03-08T02:23:49;15.93;;;8.03;;
10041;SDS011;5061;49.068;12.058;2024-03-08T02:27:12;15.47;;;8.27;;
10041;SDS011;5061;49.068;12.058;2024-03-08T02:30:32;17.83;;;8.30;;
10041;SDS011;5061;49.068;12.058;2024-03-08T02:33:53;15.70;;;8.67;;
10041;SDS011;5061;49.068;12.058;2024-03-08T02:37:14;13.60;;;7.40;;
10041;SDS011;5061;49.068;12.058;2024-03-08T02:40:35;15.67;;;7.43;;
10041;SDS011;5061;49.068;12.058;2024-03-08T02:43:55;15.33;;;9.20;;
10041;SDS011;5061;49.068;12.058;2024-03-08T02:47:16;15.33;;;8.87;;
10041;SDS011;5061;49.068;12.058;2024-03-08T02:50:37;19.43;;;10.07;;
10041;SDS011;5061;49.068;12.058;2024-03-08T02:53:59;15.97;;;8.70;;
10041;SDS011;5061;49.068;12.058;2024-03-08T02:57:20;12.27;;;7.00;;
10041;SDS011;5061;49.068;12.058;2024-03-08T03:00:40;12.50;;;7.53;;
10041;SDS011;5061;49.068;12.058;2024-03-08T03:04:01;13.30;;;7.90;;
10041;SDS011;5061;49.068;12.058;2024-03-08T03:07:22;16.03;;;8.57;;
10041;SDS011;5061;49.068;12.058;2024-03-08T03:10:43;20.27;;;8.97;;
10041;SDS011;5061;49.068;12.058;2024-03-08T03:14:04;19.40;;;8.33;;
10041;SDS011;5061;49.068;12.058;2024-03-08T03:17:24;19.67;;;9.13;;
10041;SDS011;5061;49.068;12.058;2024-03-08T03:20:45;17.10;;;9.10;;
10041;SDS011;5061;49.068;12.058;2024-03-08T03:24:06;16.40;;;9.23;;
10041;SDS011;5061;49.068;12.058;2024-03-08T03:27:30;17.13;;;8.43;;
10041;SDS011;5061;49.068;12.058;2024-03-08T03:30:50;14.77;;;8.33;;
10041;SDS011;5061;49.068;12.058;2024-03-08T03:34:11;19.97;;;8.73;;
10041;SDS011;5061;49.068;12.058;2024-03-08T03:37:32;19.67;;;9.90;;
10041;SDS011;5061;49.068;12.058;2024-03-08T03:40:54;14.10;;;8.97;;
10041;SDS011;5061;49.068;12.058;2024-03-08T03:44:17;14.53;;;8.67;;
10041;SDS011;5061;49.068;12.058;2024-03-08T03:47:38;17.90;;;9.93;;
10041;SDS011;5061;49.068;12.058;2024-03-08T03:50:58;17.17;;;10.30;;
10041;SDS011;5061;49.068;12.058;2024-03-08T03:54:19;13.07;;;8.10;;
10041;SDS011;5061;49.068;12.058;2024-03-08T03:57:40;14.80;;;8.87;;
10041;SDS011;5061;49.068;12.058;2024-03-08T04:01:00;14.23;;;9.00;;
10041;SDS011;5061;49.068;12.058;2024-03-08T04:04:21;12.70;;;7.90;;
10041;SDS011;5061;49.068;12.058;2024-03-08T04:07:43;16.10;;;8.40;;
10041;SDS011;5061;49.068;12.058;2024-03-08T04:11:04;13.67;;;8.07;;
10041;SDS011;5061;49.068;12.058;2024-03-08T04:14:24;18.70;;;7.93;;
10041;SDS011;5061;49.068;12.058;2024-03-08T04:17:45;19.33;;;9.00;;
10041;SDS011;5061;49.068;12.058;2024-03-08T04:21:06;16.43;;;8.53;;
10041;SDS011;5061;49.068;12.058;2024-03-08T04:24:29;20.70;;;10.10;;
10041;SDS011;5061;49.068;12.058;2024-03-08T04:27:50;18.60;;;9.80;;
10041;SDS011;5061;49.068;12.058;2024-03-08T04:31:12;16.13;;;8.80;;
10041;SDS011;5061;49.068;12.058;2024-03-08T04:34:33;24.73;;;11.27;;
10041;SDS011;5061;49.068;12.058;2024-03-08T04:37:54;14.10;;;8.87;;
10041;SDS011;5061;49.068;12.058;2024-03-08T04:41:17;18.17;;;8.90;;
10041;SDS011;5061;49.068;12.058;2024-03-08T04:44:38;13.70;;;8.10;;
10041;SDS011;5061;49.068;12.058;2024-03-08T04:47:59;20.63;;;10.33;;
10041;SDS011;5061;49.068;12.058;2024-03-08T04:51:20;13.60;;;8.40;;
10041;SDS011;5061;49.068;12.058;2024-03-08T04:54:40;14.17;;;7.80;;
10041;SDS011;5061;49.068;12.058;2024-03-08T04:58:01;14.50;;;8.40;;
10041;SDS011;5061;49.068;12.058;2024-03-08T05:01:23;16.70;;;9.03;;
10041;SDS011;5061;49.068;12.058;2024-03-08T05:04:44;18.60;;;9.57;;
10041;SDS011;5061;49.068;12.058;2024-03-08T05:08:05;15.60;;;8.80;;
10041;SDS011;5061;49.068;12.058;2024-03-08T05:11:26;17.03;;;8.50;;
10041;SDS011;5061;49.068;12.058;2024-03-08T05:14:46;16.70;;;8.57;;
10041;SDS011;5061;49.068;12.058;2024-03-08T05:18:09;18.70;;;9.70;;
10041;SDS011;5061;49.068;12.058;2024-03-08T05:21:31;18.17;;;9.50;;
10041;SDS011;5061;49.068;12.058;2024-03-08T05:24:52;18.90;;;9.90;;
10041;SDS011;5061;49.068;12.058;2024-03-08T05:28:12;14.83;;;8.83;;
10041;SDS011;5061;49.068;12.058;2024-03-08T05:31:36;16.20;;;8.70;;
10041;SDS011;5061;49.068;12.058;2024-03-08T05:35:05;18.07;;;9.80;;
10041;SDS011;5061;49.068;12.058;2024-03-08T05:38:27;19.60;;;9.73;;
10041;SDS011;5061;49.068;12.058;2024-03-08T05:41:48;16.80;;;9.20;;
10041;SDS011;5061;49.068;12.058;2024-03-08T05:45:08;17.53;;;9.20;;
10041;SDS011;5061;49.068;12.058;2024-03-08T05:48:32;18.80;;;8.80;;
10041;SDS011;5061;49.068;12.058;2024-03-08T05:51:53;18.17;;;9.47;;
10041;SDS011;5061;49.068;12.058;2024-03-08T05:55:14;22.13;;;10.07;;
10041;SDS011;5061;49.068;12.058;2024-03-08T05:58:34;16.53;;;8.70;;
10041;SDS011;5061;49.068;12.058;2024-03-08T06:01:55;20.80;;;9.20;;
10041;SDS011;5061;49.068;12.058;2024-03-08T06:05:16;15.80;;;8.60;;
10041;SDS011;5061;49.068;12.058;2024-03-08T06:08:37;17.13;;;9.00;;
10041;SDS011;5061;49.068;12.058;2024-03-08T06:11:57;18.87;;;10.70;;
10041;SDS011;5061;49.068;12.058;2024-03-08T06:15:18;18.60;;;9.53;;
10041;SDS011;5061;49.068;12.058;2024-03-08T06:18:40;16.40;;;8.90;;
10041;SDS011;5061;49.068;12.058;2024-03-08T06:22:01;16.73;;;9.83;;
10041;SDS011;5061;49.068;12.058;2024-03-08T06:25:25;17.37;;;9.33;;
10041;SDS011;5061;49.068;12.058;2024-03-08T06:28:46;18.47;;;9.03;;
10041;SDS011;5061;49.068;12.058;2024-03-08T06:32:06;23.50;;;11.77;;
10041;SDS011;5061;49.068;12.058;2024-03-08T06:35:27;16.37;;;8.80;;
10041;SDS011;5061;49.068;12.058;2024-03-08T06:38:48;17.37;;;10.07;;
10041;SDS011;5061;49.068;12.058;2024-03-08T06:42:09;15.97;;;8.00;;
10041;SDS011;5061;49.068;12.058;2024-03-08T06:45:30;16.93;;;8.80;;
10041;SDS011;5061;49.068;12.058;2024-03-08T06:48:51;16.13;;;8.73;;
10041;SDS011;5061;49.068;12.058;2024-03-08T06:52:11;26.93;;;10.73;;
10041;SDS011;5061;49.068;12.058;2024-03-08T06:55:32;19.33;;;9.07;;
10041;SDS011;5061;49.068;12.058;2024-03-08T06:58:53;20.20;;;10.30;;
10041;SDS011;5061;49.068;12.058;2024-03-08T07:02:13;18.17;;;10.03;;
10041;SDS011;5061;49.068;12.058;2024-03-08T07:05:34;18.10;;;10.03;;
10041;SDS011;5061;49.068;12.058;2024-03-08T07:08:55;21.93;;;11.17;;
10041;SDS011;5061;49.068;12.058;2024-03-08T07:12:15;21.47;;;10.87;;
10041;SDS011;5061;49.068;12.058;2024-03-08T07:15:37;16.63;;;9.67;;
10041;SDS011;5061;49.068;12.058;2024-03-08T07:18:57;18.07;;;9.43;;
10041;SDS011;5061;49.068;12.058;2024-03-08T07:22:18;15.80;;;7.93;;
10041;SDS011;5061;49.068;12.058;2024-03-08T07:25:39;18.10;;;9.60;;
10041;SDS011;5061;49.068;12.058;2024-03-08T07:29:00;18.37;;;9.67;;
10041;SDS011;5061;49.068;12.058;2024-03-08T07:32:20;17.53;;;9.07;;
10041;SDS011;5061;49.068;12.058;2024-03-08T07:35:41;16.97;;;9.00;;
10041;SDS011;5061;49.068;12.058;2024-03-08T07:39:02;16.53;;;9.27;;
10041;SDS011;5061;49.068;12.058;2024-03-08T07:42:25;19.17;;;10.13;;
10041;SDS011;5061;49.068;12.058;2024-03-08T07:45:46;17.67;;;9.80;;
10041;SDS011;5061;49.068;12.058;2024-03-08T07:49:07;20.33;;;11.07;;
10041;SDS011;5061;49.068;12.058;2024-03-08T07:52:30;21.50;;;11.80;;
10041;SDS011;5061;49.068;12.058;2024-03-08T07:55:51;22.27;;;12.17;;
10041;SDS011;5061;49.068;12.058;2024-03-08T07:59:12;23.60;;;12.30;;
10041;SDS011;5061;49.068;12.058;2024-03-08T08:02:33;23.43;;;12.70;;
10041;SDS011;5061;49.068;12.058;2024-03-08T08:05:55;24.83;;;12.63;;
10041;SDS011;5061;49.068;12.058;2024-03-08T08:09:15;26.60;;;12.53;;
10041;SDS011;5061;49.068;12.058;2024-03-08T08:12:42;23.23;;;11.80;;
10041;SDS011;5061;49.068;12.058;2024-03-08T08:16:03;25.90;;;11.93;;
10041;SDS011;5061;49.068;12.058;2024-03-08T08:19:25;24.73;;;13.10;;
10041;SDS011;5061;49.068;12.058;2024-03-08T08:22:47;21.90;;;10.97;;
10041;SDS011;5061;49.068;12.058;2024-03-08T08:26:08;18.20;;;10.27;;
10041;SDS011;5061;49.068;12.058;2024-03-08T08:29:30;28.73;;;12.50;;
10041;SDS011;5061;49.068;12.058;2024-03-08T08:32:50;24.00;;;11.63;;
10041;SDS011;5061;49.068;12.058;2024-03-08T08:36:11;19.40;;;10.80;;
10041;SDS011;5061;49.068;12.058;2024-03-08T08:39:32;20.20;;;10.47;;
10041;SDS011;5061;49.068;12.058;2024-03-08T08:42:52;19.47;;;10.27;;
10041;SDS011;5061;49.068;12.058;2024-03-08T08:46:13;16.00;;;8.87;;
10041;SDS011;5061;49.068;12.058;2024-03-08T08:49:36;20.83;;;11.67;;
10041;SDS011;5061;49.068;12.058;2024-03-08T08:52:57;21.33;;;10.63;;
10041;SDS011;5061;49.068;12.058;2024-03-08T08:56:18;19.97;;;11.00;;
10041;SDS011;5061;49.068;12.058;2024-03-08T08:59:39;18.03;;;9.00;;
10041;SDS011;5061;49.068;12.058;2024-03-08T09:02:59;20.50;;;9.87;;
10041;SDS011;5061;49.068;12.058;2024-03-08T09:06:22;23.80;;;11.67;;
10041;SDS011;5061;49.068;12.058;2024-03-08T09:09:42;21.10;;;11.37;;
10041;SDS011;5061;49.068;12.058;2024-03-08T09:13:03;27.83;;;11.03;;
10041;SDS011;5061;49.068;12.058;2024-03-08T09:16:24;25.00;;;11.53;;
10041;SDS011;5061;49.068;12.058;2024-03-08T09:19:44;20.63;;;9.87;;
10041;SDS011;5061;49.068;12.058;2024-03-08T09:23:05;17.10;;;9.10;;
10041;SDS011;5061;49.068;12.058;2024-03-08T09:26:26;18.27;;;9.70;;
10041;SDS011;5061;49.068;12.058;2024-03-08T09:29:46;20.13;;;10.50;;
10041;SDS011;5061;49.068;12.058;2024-03-08T09:33:07;20.97;;;10.80;;
10041;SDS011;5061;49.068;12.058;2024-03-08T09:36:29;37.67;;;12.10;;
10041;SDS011;5061;49.068;12.058;2024-03-08T09:39:52;20.30;;;10.20;;
10041;SDS011;5061;49.068;12.058;2024-03-08T09:43:13;18.50;;;9.13;;
10041;SDS011;5061;49.068;12.058;2024-03-08T09:46:33;20.27;;;10.37;;
10041;SDS011;5061;49.068;12.058;2024-03-08T09:49:54;22.60;;;10.60;;
10041;SDS011;5061;49.068;12.058;2024-03-08T09:53:15;19.27;;;10.63;;
10041;SDS011;5061;49.068;12.058;2024-03-08T09:56:37;21.40;;;10.33;;
10041;SDS011;5061;49.068;12.058;2024-03-08T10:00:01;18.33;;;10.60;;
10041;SDS011;5061;49.068;12.058;2024-03-08T10:03:28;21.13;;;9.90;;
10041;SDS011;5061;49.068;12.058;2024-03-08T10:06:49;20.67;;;9.90;;
10041;SDS011;5061;49.068;12.058;2024-03-08T10:10:10;19.80;;;9.00;;
10041;SDS011;5061;49.068;12.058;2024-03-08T10:13:32;15.10;;;8.13;;
10041;SDS011;5061;49.068;12.058;2024-03-08T10:16:53;15.93;;;9.17;;
10041;SDS011;5061;49.068;12.058;2024-03-08T10:20:17;16.90;;;9.60;;
10041;SDS011;5061;49.068;12.058;2024-03-08T10:23:39;17.03;;;9.07;;
10041;SDS011;5061;49.068;12.058;2024-03-08T10:27:00;17.00;;;9.40;;
10041;SDS011;5061;49.068;12.058;2024-03-08T10:30:24;17.43;;;9.47;;
10041;SDS011;5061;49.068;12.058;2024-03-08T10:33:45;19.87;;;9.27;;
10041;SDS011;5061;49.068;12.058;2024-03-08T10:37:06;19.07;;;10.30;;
10041;SDS011;5061;49.068;12.058;2024-03-08T10:40:30;18.70;;;10.10;;
10041;SDS011;5061;49.068;12.058;2024-03-08T10:43:59;16.80;;;10.10;;
10041;SDS011;5061;49.068;12.058;2024-03-08T10:47:26;13.67;;;8.10;;
10041;SDS011;5061;49.068;12.058;2024-03-08T10:50:50;13.67;;;8.17;;
10041;SDS011;5061;49.068;12.058;2024-03-08T10:54:12;18.17;;;9.40;;
10041;SDS011;5061;49.068;12.058;2024-03-08T10:57:35;20.10;;;10.07;;
10041;SDS011;5061;49.068;12.058;2024-03-08T11:00:58;15.83;;;9.10;;
10041;SDS011;5061;49.068;12.058;2024-03-08T11:04:18;16.87;;;8.97;;
10041;SDS011;5061;49.068;12.058;2024-03-08T11:07:42;17.13;;;8.80;;
10041;SDS011;5061;49.068;12.058;2024-03-08T11:11:03;15.93;;;8.57;;
10041;SDS011;5061;49.068;12.058;2024-03-08T11:14:43;13.90;;;8.10;;
10041;SDS011;5061;49.068;12.058;2024-03-08T11:18:06;16.37;;;9.00;;
10041;SDS011;5061;49.068;12.058;2024-03-08T11:21:30;15.80;;;8.47;;
10041;SDS011;5061;49.068;12.058;2024-03-08T11:24:53;16.53;;;8.40;;
10041;SDS011;5061;49.068;12.058;2024-03-08T11:28:20;17.57;;;8.77;;
10041;SDS011;5061;49.068;12.058;2024-03-08T11:31:43;23.60;;;9.00;;
10041;SDS011;5061;49.068;12.058;2024-03-08T11:35:06;14.37;;;7.93;;
10041;SDS011;5061;49.068;12.058;2024-03-08T11:38:41;14.17;;;8.37;;
10041;SDS011;5061;49.068;12.058;2024-03-08T11:42:04;16.70;;;9.53;;
10041;SDS011;5061;49.068;12.058;2024-03-08T11:45:25;12.83;;;7.73;;
10041;SDS011;5061;49.068;12.058;2024-03-08T11:48:47;13.80;;;8.00;;
10041;SDS011;5061;49.068;12.058;2024-03-08T11:52:09;15.57;;;8.03;;
10041;SDS011;5061;49.068;12.058;2024-03-08T11:55:33;11.30;;;6.50;;
10041;SDS011;5061;49.068;12.058;2024-03-08T11:58:55;15.87;;;7.93;;
10041;SDS011;5061;49.068;12.058;2024-03-08T12:02:20;15.50;;;8.73;;
10041;SDS011;5061;49.068;12.058;2024-03-08T12:05:41;10.03;;;6.77;;
10041;SDS011;5061;49.068;12.058;2024-03-08T12:09:03;12.93;;;7.20;;
10041;SDS011;5061;49.068;12.058;2024-03-08T12:12:24;11.47;;;6.63;;
10041;SDS011;5061;49.068;12.058;2024-03-08T12:15:45;11.30;;;6.73;;
10041;SDS011;5061;49.068;12.058;2024-03-08T12:19:05;14.60;;;7.53;;
10041;SDS011;5061;49.068;12.058;2024-03-08T12:22:26;11.20;;;6.70;;
10041;SDS011;5061;49.068;12.058;2024-03-08T12:25:47;7.43;;;5.00;;
10041;SDS011;5061;49.068;12.058;2024-03-08T12:29:18;8.40;;;5.70;;
10041;SDS011;5061;49.068;12.058;2024-03-08T12:32:59;10.50;;;6.13;;
10041;SDS011;5061;49.068;12.058;2024-03-08T12:36:20;12.50;;;6.90;;
10041;SDS011;5061;49.068;12.058;2024-03-08T12:39:41;9.77;;;6.27;;
10041;SDS011;5061;49.068;12.058;2024-03-08T12:43:02;9.50;;;6.30;;
10041;SDS011;5061;49.068;12.058;2024-03-08T12:46:23;10.07;;;6.13;;
10041;SDS011;5061;49.068;12.058;2024-03-08T12:49:46;9.50;;;6.57;;
10041;SDS011;5061;49.068;12.058;2024-03-08T12:53:07;11.20;;;6.87;;
10041;SDS011;5061;49.068;12.058;2024-03-08T12:56:29;10.67;;;6.10;;
10041;SDS011;5061;49.068;12.058;2024-03-08T12:59:51;11.00;;;6.37;;
10041;SDS011;5061;49.068;12.058;2024-03-08T13:03:13;12.03;;;6.60;;
10041;SDS011;5061;49.068;12.058;2024-03-08T13:06:34;9.27;;;5.70;;
10041;SDS011;5061;49.068;12.058;2024-03-08T13:09:55;8.10;;;5.70;;
10041;SDS011;5061;49.068;12.058;2024-03-08T13:13:17;7.43;;;5.47;;
10041;SDS011;5061;49.068;12.058;2024-03-08T13:16:37;8.20;;;4.83;;
10041;SDS011;5061;49.068;12.058;2024-03-08T13:19:58;9.67;;;6.43;;
10041;SDS011;5061;49.068;12.058;2024-03-08T13:23:19;9.03;;;5.57;;
10041;SDS011;5061;49.068;12.058;2024-03-08T13:26:39;10.83;;;5.20;;
10041;SDS011;5061;49.068;12.058;2024-03-08T13:30:03;8.90;;;5.57;;
10041;SDS011;5061;49.068;12.058;2024-03-08T13:33:24;10.03;;;6.50;;
10041;SDS011;5061;49.068;12.058;2024-03-08T13:36:45;10.40;;;6.53;;
10041;SDS011;5061;49.068;12.058;2024-03-08T13:40:06;8.13;;;4.80;;
10041;SDS011;5061;49.068;12.058;2024-03-08T13:43:30;7.93;;;5.50;;
10041;SDS011;5061;49.068;12.058;2024-03-08T13:46:54;9.20;;;5.43;;
10041;SDS011;5061;49.068;12.058;2024-03-08T13:50:17;9.13;;;5.20;;
10041;SDS011;5061;49.068;12.058;2024-03-08T13:53:41;8.87;;;4.80;;
10041;SDS011;5061;49.068;12.058;2024-03-08T13:57:02;7.77;;;5.07;;
10041;SDS011;5061;49.068;12.058;2024-03-08T14:00:24;8.13;;;5.50;;
10041;SDS011;5061;49.068;12.058;2024-03-08T14:03:47;8.33;;;5.90;;
10041;SDS011;5061;49.068;12.058;2024-03-08T14:07:08;8.40;;;5.53;;
10041;SDS011;5061;49.068;12.058;2024-03-08T14:10:29;8.17;;;4.73;;
10041;SDS011;5061;49.068;12.058;2024-03-08T14:13:51;11.50;;;6.57;;
10041;SDS011;5061;49.068;12.058;2024-03-08T14:17:12;6.20;;;4.53;;
10041;SDS011;5061;49.068;12.058;2024-03-08T14:20:37;6.10;;;4.53;;
10041;SDS011;5061;49.068;12.058;2024-03-08T14:23:57;7.70;;;5.27;;
10041;SDS011;5061;49.068;12.058;2024-03-08T14:27:18;6.93;;;5.10;;
10041;SDS011;5061;49.068;12.058;2024-03-08T14:30:39;6.00;;;4.23;;
10041;SDS011;5061;49.068;12.058;2024-03-08T14:34:01;9.37;;;5.27;;
10041;SDS011;5061;49.068;12.058;2024-03-08T14:37:23;5.60;;;3.87;;
10041;SDS011;5061;49.068;12.058;2024-03-08T14:40:48;6.20;;;4.03;;
10041;SDS011;5061;49.068;12.058;2024-03-08T14:44:08;6.53;;;4.30;;
10041;SDS011;5061;49.068;12.058;2024-03-08T14:47:29;7.20;;;4.50;;
10041;SDS011;5061;49.068;12.058;2024-03-08T14:50:50;6.13;;;4.10;;
10041;SDS011;5061;49.068;12.058;2024-03-08T14:54:10;6.00;;;4.40;;
10041;SDS011;5061;49.068;12.058;2024-03-08T14:57:32;8.23;;;4.60;;
10041;SDS011;5061;49.068;12.058;2024-03-08T15:00:53;7.50;;;4.97;;
10041;SDS011;5061;49.068;12.058;2024-03-08T15:04:15;7.10;;;4.83;;
10041;SDS011;5061;49.068;12.058;2024-03-08T15:07:38;5.37;;;3.93;;
10041;SDS011;5061;49.068;12.058;2024-03-08T15:11:03;6.90;;;4.13;;
10041;SDS011;5061;49.068;12.058;2024-03-08T15:14:24;7.63;;;4.50;;
10041;SDS011;5061;49.068;12.058;2024-03-08T15:17:46;8.60;;;5.07;;
10041;SDS011;5061;49.068;12.058;2024-03-08T15:21:07;7.80;;;4.27;;
10041;SDS011;5061;49.068;12.058;2024-03-08T15:24:27;6.07;;;4.47;;
10041;SDS011;5061;49.068;12.058;2024-03-08T15:27:48;7.13;;;5.00;;
10041;SDS011;5061;49.068;12.058;2024-03-08T15:31:09;9.70;;;3.97;;
10041;SDS011;5061;49.068;12.058;2024-03-08T15:34:29;6.73;;;4.07;;
10041;SDS011;5061;49.068;12.058;2024-03-08T15:37:52;7.50;;;5.10;;
10041;SDS011;5061;49.068;12.058;2024-03-08T15:41:14;4.87;;;3.60;;
10041;SDS011;5061;49.068;12.058;2024-03-08T15:44:38;7.40;;;4.87;;
10041;SDS011;5061;49.068;12.058;2024-03-08T15:48:01;6.80;;;4.60;;
10041;SDS011;5061;49.068;12.058;2024-03-08T15:51:25;8.17;;;5.00;;
10041;SDS011;5061;49.068;12.058;2024-03-08T15:54:46;7.73;;;4.40;;
10041;SDS011;5061;49.068;12.058;2024-03-08T15:58:07;6.27;;;4.13;;
10041;SDS011;5061;49.068;12.058;2024-03-08T16:01:27;6.60;;;4.10;;
10041;SDS011;5061;49.068;12.058;2024-03-08T16:04:48;6.17;;;4.73;;
10041;SDS011;5061;49.068;12.058;2024-03-08T16:08:10;8.70;;;5.10;;
10041;SDS011;5061;49.068;12.058;2024-03-08T16:11:35;7.10;;;4.50;;
10041;SDS011;5061;49.068;12.058;2024-03-08T16:14:58;6.97;;;4.83;;
10041;SDS011;5061;49.068;12.058;2024-03-08T16:18:18;6.20;;;4.40;;
10041;SDS011;5061;49.068;12.058;2024-03-08T16:21:41;7.10;;;4.63;;
10041;SDS011;5061;49.068;12.058;2024-03-08T16:25:01;9.40;;;5.70;;
10041;SDS011;5061;49.068;12.058;2024-03-08T16:28:24;9.80;;;6.30;;
10041;SDS011;5061;49.068;12.058;2024-03-08T16:31:58;9.37;;;6.20;;
10041;SDS011;5061;49.068;12.058;2024-03-08T16:35:19;10.00;;;6.13;;
10041;SDS011;5061;49.068;12.058;2024-03-08T16:38:39;10.30;;;6.37;;
10041;SDS011;5061;49.068;12.058;2024-03-08T16:42:03;10.03;;;6.33;;
10041;SDS011;5061;49.068;12.058;2024-03-08T16:45:27;9.83;;;6.60;;
10041;SDS011;5061;49.068;12.058;2024-03-08T16:48:49;13.70;;;7.83;;
10041;SDS011;5061;49.068;12.058;2024-03-08T16:52:09;10.07;;;6.40;;
10041;SDS011;5061;49.068;12.058;2024-03-08T16:55:30;9.67;;;5.70;;
10041;SDS011;5061;49.068;12.058;2024-03-08T16:58:51;10.43;;;6.30;;
10041;SDS011;5061;49.068;12.058;2024-03-08T17:02:11;7.90;;;5.70;;
10041;SDS011;5061;49.068;12.058;2024-03-08T17:05:32;10.80;;;6.57;;
10041;SDS011;5061;49.068;12.058;2024-03-08T17:08:52;10.53;;;6.27;;
10041;SDS011;5061;49.068;12.058;2024-03-08T17:12:13;11.27;;;6.80;;
10041;SDS011;5061;49.068;12.058;2024-03-08T17:15:38;12.13;;;6.70;;
10041;SDS011;5061;49.068;12.058;2024-03-08T17:19:01;13.83;;;6.73;;
10041;SDS011;5061;49.068;12.058;2024-03-08T17:22:22;12.40;;;7.17;;
10041;SDS011;5061;49.068;12.058;2024-03-08T17:25:44;11.50;;;6.33;;
10041;SDS011;5061;49.068;12.058;2024-03-08T17:29:06;11.60;;;7.20;;
10041;SDS011;5061;49.068;12.058;2024-03-08T17:32:27;14.67;;;8.13;;
10041;SDS011;5061;49.068;12.058;2024-03-08T17:35:48;14.50;;;7.47;;
10041;SDS011;5061;49.068;12.058;2024-03-08T17:39:11;11.97;;;6.93;;
10041;SDS011;5061;49.068;12.058;2024-03-08T17:42:46;11.03;;;6.10;;
10041;SDS011;5061;49.068;12.058;2024-03-08T17:46:07;12.23;;;7.10;;
10041;SDS011;5061;49.068;12.058;2024-03-08T17:49:28;12.30;;;7.23;;
10041;SDS011;5061;49.068;12.058;2024-03-08T17:52:50;13.30;;;7.23;;
10041;SDS011;5061;49.068;12.058;2024-03-08T17:56:11;12.70;;;7.10;;
10041;SDS011;5061;49.068;12.058;2024-03-08T17:59:33;12.63;;;7.00;;
10041;SDS011;5061;49.068;12.058;2024-03-08T18:02:55;10.73;;;6.60;;
10041;SDS011;5061;49.068;12.058;2024-03-08T18:06:16;11.63;;;6.50;;
10041;SDS011;5061;49.068;12.058;2024-03-08T18:09:37;13.10;;;7.80;;
10041;SDS011;5061;49.068;12.058;2024-03-08T18:12:58;16.80;;;8.07;;
10041;SDS011;5061;49.068;12.058;2024-03-08T18:16:19;11.90;;;6.70;;
10041;SDS011;5061;49.068;12.058;2024-03-08T18:19:40;13.10;;;7.17;;
10041;SDS011;5061;49.068;12.058;2024-03-08T18:23:02;11.63;;;6.60;;
10041;SDS011;5061;49.068;12.058;2024-03-08T18:26:23;13.60;;;7.53;;
10041;SDS011;5061;49.068;12.058;2024-03-08T18:29:46;13.00;;;7.50;;
10041;SDS011;5061;49.068;12.058;2024-03-08T18:33:07;15.60;;;8.17;;
10041;SDS011;5061;49.068;12.058;2024-03-08T18:36:28;14.73;;;8.23;;
10041;SDS011;5061;49.068;12.058;2024-03-08T18:39:53;12.03;;;6.93;;
10041;SDS011;5061;49.068;12.058;2024-03-08T18:43:16;13.50;;;7.87;;
10041;SDS011;5061;49.068;12.058;2024-03-08T18:46:44;15.03;;;7.80;;
10041;SDS011;5061;49.068;12.058;2024-03-08T18:50:04;12.60;;;7.53;;
10041;SDS011;5061;49.068;12.058;2024-03-08T18:53:27;11.83;;;6.80;;
10041;SDS011;5061;49.068;12.058;2024-03-08T18:56:48;12.13;;;6.77;;
10041;SDS011;5061;49.068;12.058;2024-03-08T19:03:40;14.37;;;8.17;;
10041;SDS011;5061;49.068;12.058;2024-03-08T19:07:02;15.43;;;8.30;;
10041;SDS011;5061;49.068;12.058;2024-03-08T19:10:24;12.63;;;6.80;;
10041;SDS011;5061;49.068;12.058;2024-03-08T19:13:45;16.43;;;8.40;;
10041;SDS011;5061;49.068;12.058;2024-03-08T19:17:06;14.27;;;7.90;;
10041;SDS011;5061;49.068;12.058;2024-03-08T19:20:30;16.40;;;8.53;;
10041;SDS011;5061;49.068;12.058;2024-03-08T19:23:53;15.17;;;7.77;;
10041;SDS011;5061;49.068;12.058;2024-03-08T19:27:14;12.63;;;6.70;;
10041;SDS011;5061;49.068;12.058;2024-03-08T19:30:35;13.60;;;7.83;;
10041;SDS011;5061;49.068;12.058;2024-03-08T19:33:57;10.20;;;6.97;;
10041;SDS011;5061;49.068;12.058;2024-03-08T19:37:17;11.43;;;6.77;;
10041;SDS011;5061;49.068;12.058;2024-03-08T19:40:39;15.53;;;8.17;;
10041;SDS011;5061;49.068;12.058;2024-03-08T19:44:04;14.37;;;7.83;;
10041;SDS011;5061;49.068;12.058;2024-03-08T19:47:27;12.00;;;7.37;;
10041;SDS011;5061;49.068;12.058;2024-03-08T19:50:49;13.33;;;7.47;;
10041;SDS011;5061;49.068;12.058;2024-03-08T19:54:11;14.03;;;7.83;;
10041;SDS011;5061;49.068;12.058;2024-03-08T19:57:34;16.40;;;8.60;;
10041;SDS011;5061;49.068;12.058;2024-03-08T20:00:55;12.93;;;7.00;;
10041;SDS011;5061;49.068;12.058;2024-03-08T20:04:16;15.07;;;7.10;;